Time;durP1;ratioP1;P1;durP2;ratioP2;P2;SDS_P1;SDS_P2;PMS_P1;PMS_P2;Temp;Humidity;BMP_temperature;BMP_pressure;BME280_temperature;BME280_humidity;BME280_pressure;Samples;Min_cycle;Max_cycle;Signal;HPM_P1;HPM_P2
2023/03/20 00:00:07;;;;;;;1.52;0.95;;;;;;;9.56;100.00;98424.84;15272863;19;20045;-45
2023/03/20 00:05:36;;;;;;;0.95;0.90;;;;;;;9.58;100.00;98423.84;15272688;19;20086;-44
2023/03/20 00:11:01;;;;;;;1.15;0.90;;;;;;;9.58;100.00;98423.84;15273199;19;20016;-44
2023/03/20 00:16:25;;;;;;;1.23;0.93;;;;;;;9.58;100.00;98410.41;15268697;19;20761;-45
2023/03/20 00:21:53;;;;;;;1.67;1.02;;;;;;;9.53;100.00;98424.28;15269746;19;20036;-46
2023/03/20 00:27:21;;;;;;;1.13;0.90;;;;;;;9.39;100.00;98421.19;15270051;19;20021;-45
2023/03/20 00:32:46;;;;;;;1.40;1.13;;;;;;;9.39;100.00;98423.00;15271398;19;20801;-45
2023/03/20 00:38:13;;;;;;;1.70;1.10;;;;;;;9.34;100.00;98431.53;15286836;19;20062;-45
2023/03/20 00:43:37;;;;;;;1.00;0.90;;;;;;;9.27;100.00;98413.47;15284345;19;20403;-46
2023/03/20 00:49:03;;;;;;;1.08;0.98;;;;;;;9.21;100.00;98417.63;15277291;19;20778;-47
2023/03/20 00:54:30;;;;;;;1.73;1.10;;;;;;;9.15;100.00;98421.75;15281513;19;20090;-46
2023/03/20 01:00:01;;;;;;;1.58;1.00;;;;;;;9.10;100.00;98419.53;15285933;19;20756;-46
2023/03/20 01:05:35;;;;;;;2.72;1.23;;;;;;;9.02;100.00;98416.78;15278861;19;20042;-47
2023/03/20 01:11:02;;;;;;;1.33;1.10;;;;;;;8.95;100.00;98421.03;15282398;19;20039;-45
2023/03/20 01:16:30;;;;;;;1.33;1.20;;;;;;;8.90;100.00;98416.13;15282129;19;20014;-44
2023/03/20 01:21:55;;;;;;;1.67;1.00;;;;;;;8.88;100.00;98414.59;15278454;19;20872;-45
2023/03/20 01:27:25;;;;;;;1.30;1.10;;;;;;;8.86;100.00;98420.13;15280653;19;20042;-44
2023/03/20 01:32:50;;;;;;;1.60;1.15;;;;;;;8.85;100.00;98426.50;15271015;19;20015;-51
2023/03/20 01:38:20;;;;;;;2.35;1.20;;;;;;;8.84;100.00;98432.00;15276963;19;20035;-53
2023/03/20 01:43:47;;;;;;;1.73;1.00;;;;;;;8.82;100.00;98432.16;15275602;19;20023;-48
2023/03/20 01:49:37;;;;;;;1.25;1.13;;;;;;;8.79;100.00;98436.00;15275709;19;20019;-49
2023/03/20 01:55:03;;;;;;;1.17;1.00;;;;;;;8.76;100.00;98443.50;15277978;19;20045;-47
2023/03/20 02:00:35;;;;;;;1.20;1.10;;;;;;;8.76;100.00;98440.81;15278255;19;20101;-48
2023/03/20 02:06:01;;;;;;;3.83;1.23;;;;;;;8.77;100.00;98446.03;15278983;19;20082;-47
2023/03/20 02:11:51;;;;;;;1.95;0.98;;;;;;;8.73;100.00;98441.13;15277814;19;20029;-47
2023/03/20 02:17:18;;;;;;;1.52;1.20;;;;;;;8.75;100.00;98437.28;15274681;19;20022;-47
2023/03/20 02:23:08;;;;;;;3.17;1.25;;;;;;;8.76;100.00;98436.28;15268577;19;20025;-50
2023/03/20 02:29:24;;;;;;;1.55;1.10;;;;;;;8.73;100.00;98441.13;15270015;19;20006;-50
2023/03/20 02:35:19;;;;;;;1.52;1.10;;;;;;;8.71;100.00;98435.03;15271467;19;20022;-48
2023/03/20 02:40:56;;;;;;;1.58;1.10;;;;;;;8.88;100.00;98428.84;15278744;19;20355;-50
2023/03/20 02:46:30;;;;;;;1.92;1.20;;;;;;;8.88;100.00;98430.72;15276012;19;20038;-48
2023/03/20 02:52:08;;;;;;;1.30;1.10;;;;;;;8.87;100.00;98424.50;15275976;19;20023;-48
2023/03/20 02:57:44;;;;;;;1.33;1.23;;;;;;;8.78;100.00;98425.38;15270602;19;20533;-49
2023/03/20 03:03:16;;;;;;;1.65;1.23;;;;;;;8.73;100.00;98427.69;15270895;19;20022;-49
2023/03/20 03:08:44;;;;;;;1.80;1.20;;;;;;;8.72;100.00;98428.69;15271181;19;20032;-49
2023/03/20 03:14:14;;;;;;;2.13;1.20;;;;;;;8.71;100.00;98437.72;15273317;19;20108;-51
2023/03/20 03:19:42;;;;;;;2.30;1.15;;;;;;;8.72;100.00;98434.88;15275743;19;20017;-48
2023/03/20 03:25:07;;;;;;;1.33;1.23;;;;;;;8.72;100.00;98432.19;15269847;19;20056;-54
2023/03/20 03:30:39;;;;;;;1.38;1.20;;;;;;;8.75;100.00;98439.13;15266458;19;20035;-50
2023/03/20 03:36:19;;;;;;;1.75;1.30;;;;;;;8.76;100.00;98435.44;15263996;19;20014;-49
2023/03/20 03:41:48;;;;;;;1.55;1.20;;;;;;;8.75;100.00;98441.81;15272958;19;20014;-48
2023/03/20 03:47:21;;;;;;;3.67;1.30;;;;;;;8.74;100.00;98443.63;15272154;19;20094;-47
2023/03/20 03:52:48;;;;;;;1.48;1.20;;;;;;;8.70;100.00;98449.47;15270383;19;20489;-52
2023/03/20 03:58:19;;;;;;;1.70;1.20;;;;;;;8.70;100.00;98450.28;15265898;19;20428;-49
2023/03/20 04:03:52;;;;;;;2.20;1.40;;;;;;;8.72;100.00;98453.69;15269297;19;20015;-49
2023/03/20 04:09:17;;;;;;;1.40;1.30;;;;;;;8.72;100.00;98459.06;15263866;19;20401;-48
2023/03/20 04:14:42;;;;;;;1.30;1.20;;;;;;;8.72;100.00;98455.53;15269393;19;20022;-51
2023/03/20 04:20:11;;;;;;;2.28;1.40;;;;;;;8.71;100.00;98461.91;15264718;19;20406;-49
2023/03/20 04:25:36;;;;;;;1.35;1.23;;;;;;;8.69;100.00;98469.25;15259857;19;20082;-50
2023/03/20 04:31:01;;;;;;;3.53;1.45;;;;;;;8.68;100.00;98472.94;15267210;19;20050;-49
2023/03/20 04:37:00;;;;;;;2.75;1.40;;;;;;;8.67;100.00;98476.59;15269148;19;20022;-49
2023/03/20 04:42:43;;;;;;;2.47;1.60;;;;;;;8.67;100.00;98492.72;15268680;19;20044;-50
2023/03/20 04:48:08;;;;;;;2.03;1.50;;;;;;;8.69;100.00;98494.28;15268169;19;20010;-51
2023/03/20 04:53:35;;;;;;;1.55;1.40;;;;;;;8.70;100.00;98495.13;15265796;19;20018;-47
2023/03/20 04:59:01;;;;;;;1.50;1.33;;;;;;;8.70;100.00;98490.59;15266442;19;20018;-50
2023/03/20 05:04:26;;;;;;;1.45;1.25;;;;;;;8.69;100.00;98496.97;15262424;19;20019;-49
2023/03/20 05:09:55;;;;;;;2.10;1.40;;;;;;;8.68;100.00;98489.03;15263742;19;20538;-50
2023/03/20 05:15:29;;;;;;;1.77;1.42;;;;;;;8.67;100.00;98504.34;15266072;19;20043;-50
2023/03/20 05:21:06;;;;;;;3.15;1.65;;;;;;;8.68;100.00;98502.47;15274641;19;20713;-48
2023/03/20 05:26:56;;;;;;;2.58;1.77;;;;;;;8.66;100.00;98507.16;15280436;19;20090;-49
2023/03/20 05:32:31;;;;;;;1.80;1.60;;;;;;;8.64;100.00;98500.06;15277139;19;20014;-48
2023/03/20 05:38:21;;;;;;;1.80;1.70;;;;;;;8.62;100.00;98512.84;15274503;19;20341;-48
2023/03/20 05:44:08;;;;;;;1.48;1.38;;;;;;;8.63;100.00;98511.84;15276791;19;20535;-51
2023/03/20 05:49:51;;;;;;;3.30;1.98;;;;;;;8.61;100.00;98516.50;15277079;19;20015;-48
2023/03/20 05:55:28;;;;;;;3.03;1.70;;;;;;;8.67;100.00;98519.59;15276986;19;20025;-48
2023/03/20 06:01:32;;;;;;;1.60;1.50;;;;;;;8.71;100.00;98526.38;15280137;19;20086;-47
2023/03/20 06:07:10;;;;;;;2.75;1.67;;;;;;;8.75;100.00;98519.72;15276905;19;20088;-49
2023/03/20 06:12:45;;;;;;;1.75;1.58;;;;;;;8.77;100.00;98528.44;15278188;19;20014;-50
2023/03/20 06:18:12;;;;;;;2.17;1.35;;;;;;;8.84;100.00;98526.88;15279614;19;20074;-47
2023/03/20 06:23:39;;;;;;;1.40;1.13;;;;;;;8.90;100.00;98531.66;15277853;19;20054;-50
2023/03/20 06:29:06;;;;;;;2.33;1.30;;;;;;;8.90;100.00;98531.66;15276823;19;20018;-50
2023/03/20 06:34:42;;;;;;;1.65;1.30;;;;;;;9.01;100.00;98530.63;15276589;19;20048;-50
2023/03/20 06:40:11;;;;;;;2.17;1.20;;;;;;;9.11;100.00;98544.03;15274049;19;20471;-50
2023/03/20 06:45:37;;;;;;;2.40;1.30;;;;;;;9.18;100.00;98541.56;15274124;19;20033;-51
2023/03/20 06:51:13;;;;;;;1.23;1.13;;;;;;;9.28;100.00;98546.91;15275352;19;20018;-48
2023/03/20 06:56:39;;;;;;;1.98;1.10;;;;;;;9.35;100.00;98545.31;15276181;19;20415;-50
2023/03/20 07:02:05;;;;;;;1.67;1.25;;;;;;;9.45;100.00;98545.25;15279086;19;20025;-50
2023/03/20 07:07:33;;;;;;;1.50;1.20;;;;;;;9.53;100.00;98543.50;15275480;19;20042;-51
2023/03/20 07:12:59;;;;;;;1.60;1.17;;;;;;;9.64;100.00;98552.34;15268304;19;20014;-50
2023/03/20 07:18:24;;;;;;;2.03;1.40;;;;;;;9.72;100.00;98547.03;15275055;19;20489;-48
2023/03/20 07:23:52;;;;;;;1.60;1.40;;;;;;;9.84;100.00;98553.06;15273349;19;20390;-48
2023/03/20 07:29:18;;;;;;;3.10;1.70;;;;;;;9.91;100.00;98545.22;15272009;19;20367;-46
2023/03/20 07:34:45;;;;;;;1.83;1.55;;;;;;;9.98;100.00;98548.97;15284777;19;20014;-81
2023/03/20 07:40:15;;;;;;;2.45;1.60;;;;;;;10.03;100.00;98552.06;15301135;19;20054;-80
2023/03/20 07:45:44;;;;;;;1.83;1.50;;;;;;;10.07;100.00;98544.50;15286321;19;20018;-48
2023/03/20 07:51:08;;;;;;;2.17;1.52;;;;;;;10.13;100.00;98555.50;15273593;19;20013;-49
2023/03/20 07:56:35;;;;;;;2.13;1.50;;;;;;;10.11;100.00;98546.72;15274413;19;20018;-52
2023/03/20 08:02:00;;;;;;;2.10;1.67;;;;;;;10.25;100.00;98555.25;15273656;19;20014;-52
2023/03/20 08:07:25;;;;;;;2.17;1.90;;;;;;;10.32;100.00;98537.47;15270949;19;20025;-52
2023/03/20 08:12:52;;;;;;;2.35;1.88;;;;;;;10.47;100.00;98548.53;15269509;19;20019;-52
2023/03/20 08:18:18;;;;;;;4.05;2.80;;;;;;;10.46;100.00;98544.19;15269653;19;20023;-52
2023/03/20 08:23:44;;;;;;;3.85;2.90;;;;;;;10.56;100.00;98549.44;15274735;19;20022;-59
2023/03/20 08:29:11;;;;;;;4.75;3.25;;;;;;;10.59;100.00;98549.13;15223528;19;20021;-57
2023/03/20 08:34:36;;;;;;;4.90;4.30;;;;;;;10.67;100.00;98554.56;15269347;19;20022;-50
2023/03/20 08:40:01;;;;;;;4.90;4.00;;;;;;;10.69;100.00;98559.81;15270443;19;20024;-51
2023/03/20 08:45:28;;;;;;;5.50;4.72;;;;;;;10.83;100.00;98558.38;15267232;19;20010;-51
2023/03/20 08:50:53;;;;;;;5.25;4.60;;;;;;;10.78;100.00;98562.38;15266274;19;20014;-46
2023/03/20 08:56:18;;;;;;;5.85;4.78;;;;;;;10.83;100.00;98567.28;15277823;19;20026;-49
2023/03/20 09:01:45;;;;;;;5.72;4.53;;;;;;;10.88;100.00;98577.59;15289280;19;20029;-52
2023/03/20 09:07:10;;;;;;;4.55;4.15;;;;;;;10.99;100.00;98573.78;15287512;19;20018;-53
2023/03/20 09:12:36;;;;;;;5.05;4.55;;;;;;;11.03;100.00;98562.53;15284696;19;20014;-50
2023/03/20 09:18:03;;;;;;;4.88;4.38;;;;;;;11.07;100.00;98563.91;15287131;19;20090;-53
2023/03/20 09:23:28;;;;;;;5.68;4.88;;;;;;;11.33;100.00;98563.00;15278748;19;20473;-54
2023/03/20 09:28:53;;;;;;;8.15;5.10;;;;;;;11.29;100.00;98564.34;15281859;19;21442;-52
2023/03/20 09:34:20;;;;;;;6.03;5.43;;;;;;;11.27;100.00;98570.91;15281104;19;20019;-51
2023/03/20 09:39:46;;;;;;;6.65;5.68;;;;;;;11.33;100.00;98578.34;15283551;19;20007;-50
2023/03/20 09:45:17;;;;;;;7.13;6.30;;;;;;;11.24;100.00;98580.16;15279922;19;20011;-54
2023/03/20 09:50:51;;;;;;;6.87;6.17;;;;;;;11.24;100.00;98574.75;15280201;19;20390;-49
2023/03/20 09:56:22;;;;;;;6.93;5.60;;;;;;;11.32;100.00;98582.91;15281009;19;20006;-51
2023/03/20 10:01:55;;;;;;;5.80;4.40;;;;;;;11.31;100.00;98581.22;15284379;19;20034;-54
2023/03/20 10:07:24;;;;;;;6.35;4.10;;;;;;;11.27;100.00;98576.31;15278783;19;20030;-50
2023/03/20 10:13:01;;;;;;;6.00;3.70;;;;;;;11.33;100.00;98573.81;15279687;19;20018;-50
2023/03/20 10:18:29;;;;;;;4.63;3.80;;;;;;;11.40;100.00;98574.81;15282466;19;20038;-51
2023/03/20 10:24:05;;;;;;;5.07;4.57;;;;;;;11.40;100.00;98585.63;15281250;19;20039;-47
2023/03/20 10:29:40;;;;;;;7.18;5.70;;;;;;;11.30;100.00;98582.22;15277395;19;20017;-51
2023/03/20 10:35:19;;;;;;;5.47;4.90;;;;;;;11.05;100.00;98584.78;15275912;19;20892;-50
2023/03/20 10:40:47;;;;;;;7.65;6.03;;;;;;;11.12;100.00;98586.81;15278939;19;20021;-52
2023/03/20 10:46:14;;;;;;;7.25;5.50;;;;;;;11.27;100.00;98587.91;15278490;19;20038;-51
2023/03/20 10:51:47;;;;;;;8.70;5.57;;;;;;;11.37;100.00;98571.63;15276283;19;20675;-51
2023/03/20 10:57:22;;;;;;;6.10;4.40;;;;;;;11.35;100.00;98566.38;15278182;19;20011;-53
2023/03/20 11:02:47;;;;;;;5.80;4.90;;;;;;;11.43;100.00;98565.56;15275890;19;20018;-51
2023/03/20 11:08:15;;;;;;;5.38;4.88;;;;;;;11.41;100.00;98557.63;15276147;19;20007;-51
2023/03/20 11:13:45;;;;;;;6.25;5.15;;;;;;;11.12;100.00;98565.25;15275109;19;20021;-52
2023/03/20 11:19:14;;;;;;;4.93;4.43;;;;;;;11.04;100.00;98564.22;15275776;19;20459;-49
2023/03/20 11:24:43;;;;;;;5.05;4.55;;;;;;;11.04;100.00;98558.81;15275863;19;20356;-48
2023/03/20 11:30:16;;;;;;;6.45;5.20;;;;;;;11.09;100.00;98559.19;15270271;19;20623;-51
2023/03/20 11:35:47;;;;;;;7.28;6.00;;;;;;;10.97;100.00;98568.56;15271327;19;20533;-49
2023/03/20 11:41:13;;;;;;;6.30;5.50;;;;;;;11.10;100.00;98577.06;15273933;19;20018;-50
2023/03/20 11:46:47;;;;;;;6.97;5.72;;;;;;;11.08;100.00;98552.13;15275313;19;20021;-52
2023/03/20 11:52:16;;;;;;;7.15;5.57;;;;;;;11.14;100.00;98558.72;15269826;19;20465;-51
2023/03/20 11:57:44;;;;;;;7.68;5.53;;;;;;;11.27;100.00;98558.25;15274122;19;20477;-50
2023/03/20 12:03:42;;;;;;;5.70;5.15;;;;;;;11.37;100.00;98547.34;15269367;19;20022;-54
2023/03/20 12:09:10;;;;;;;5.93;5.32;;;;;;;11.48;100.00;98540.78;15270956;19;20370;-51
2023/03/20 12:14:43;;;;;;;6.22;5.38;;;;;;;11.65;100.00;98542.53;15269882;19;20018;-49
2023/03/20 12:20:15;;;;;;;6.60;5.90;;;;;;;11.62;100.00;98523.97;15273966;19;20023;-52
2023/03/20 12:25:46;;;;;;;7.82;6.30;;;;;;;11.47;100.00;98520.22;15270220;19;20014;-51
2023/03/20 12:31:23;;;;;;;7.63;6.40;;;;;;;11.32;100.00;98531.66;15272592;19;21009;-49
2023/03/20 12:36:53;;;;;;;8.60;7.53;;;;;;;11.04;100.00;98526.47;15284255;19;20367;-52
2023/03/20 12:42:29;;;;;;;10.20;8.52;;;;;;;11.03;100.00;98530.19;15286568;19;20011;-51
2023/03/20 12:48:37;;;;;;;9.98;8.27;;;;;;;10.90;100.00;98532.47;15283942;19;20029;-49
2023/03/20 12:54:18;;;;;;;9.57;7.82;;;;;;;10.87;100.00;98530.94;15282620;19;20011;-52
2023/03/20 12:59:55;;;;;;;10.02;8.13;;;;;;;11.01;100.00;98510.63;15287301;19;20010;-49
2023/03/20 13:05:32;;;;;;;9.10;7.75;;;;;;;11.12;100.00;98505.94;15282396;19;20420;-50
2023/03/20 13:11:10;;;;;;;8.50;7.50;;;;;;;11.31;100.00;98497.59;15278854;19;20014;-49
2023/03/20 13:16:50;;;;;;;8.57;7.68;;;;;;;11.39;100.00;98496.78;15284428;19;20011;-53
2023/03/20 13:22:22;;;;;;;8.30;6.78;;;;;;;11.46;100.00;98486.16;15283508;19;20013;-50
2023/03/20 13:27:56;;;;;;;8.60;7.50;;;;;;;11.44;100.00;98483.63;15284721;19;20029;-49
2023/03/20 13:33:34;;;;;;;8.02;6.80;;;;;;;11.43;100.00;98491.88;15272144;19;20010;-47
2023/03/20 13:39:08;;;;;;;5.30;4.80;;;;;;;11.28;100.00;98487.13;15277976;19;20019;-47
2023/03/20 13:44:37;;;;;;;5.63;4.70;;;;;;;11.09;100.00;98470.22;15279105;19;20015;-46
2023/03/20 13:50:26;;;;;;;4.97;4.47;;;;;;;11.11;100.00;98461.97;15280568;19;20010;-49
2023/03/20 13:55:57;;;;;;;5.07;4.45;;;;;;;11.28;100.00;98457.47;15279064;19;20025;-46
2023/03/20 14:01:33;;;;;;;4.77;4.30;;;;;;;11.50;100.00;98450.59;15281343;19;20022;-46
2023/03/20 14:07:02;;;;;;;4.80;3.90;;;;;;;11.67;100.00;98445.19;15277064;19;20041;-46
2023/03/20 14:12:28;;;;;;;4.13;3.72;;;;;;;11.85;100.00;98447.72;15273725;19;20018;-47
2023/03/20 14:17:58;;;;;;;3.70;3.40;;;;;;;11.93;100.00;98439.66;15277708;19;20010;-48
2023/03/20 14:23:34;;;;;;;4.40;3.60;;;;;;;11.83;100.00;98429.03;15276986;19;20018;-46
2023/03/20 14:29:05;;;;;;;4.32;3.28;;;;;;;11.87;100.00;98429.53;15281323;19;20015;-48
2023/03/20 14:34:47;;;;;;;3.73;3.10;;;;;;;11.80;100.00;98412.31;15275334;19;20040;-47
2023/03/20 14:40:24;;;;;;;4.20;3.50;;;;;;;11.76;100.00;98416.38;15279552;19;20014;-47
2023/03/20 14:45:56;;;;;;;3.90;3.40;;;;;;;11.84;100.00;98416.34;15271012;19;20729;-49
2023/03/20 14:51:41;;;;;;;4.03;2.90;;;;;;;11.85;100.00;98409.94;15275161;19;20025;-47
2023/03/20 14:57:20;;;;;;;3.28;2.88;;;;;;;11.80;100.00;98404.22;15273625;19;20033;-46
2023/03/20 15:02:44;;;;;;;3.00;2.70;;;;;;;11.84;100.00;98410.94;15275458;19;20779;-47
2023/03/20 15:08:15;;;;;;;2.60;2.38;;;;;;;11.72;100.00;98405.91;15278386;19;20341;-46
2023/03/20 15:13:41;;;;;;;2.60;2.40;;;;;;;11.76;100.00;98400.16;15273293;19;20025;-47
2023/03/20 15:19:08;;;;;;;2.65;2.20;;;;;;;11.78;100.00;98387.34;15277000;19;20085;-51
2023/03/20 15:24:36;;;;;;;2.55;2.20;;;;;;;11.85;100.00;98399.16;15280410;19;20020;-52
2023/03/20 15:30:04;;;;;;;2.20;2.00;;;;;;;11.71;100.00;98393.41;15284205;19;20018;-50
2023/03/20 15:35:30;;;;;;;2.70;2.20;;;;;;;11.78;100.00;98396.28;15280903;19;20489;-51
2023/03/20 15:40:58;;;;;;;2.40;2.20;;;;;;;11.74;100.00;98402.19;15281753;19;20018;-49
2023/03/20 15:46:22;;;;;;;2.85;2.30;;;;;;;11.70;100.00;98404.38;15276536;19;20049;-47
2023/03/20 15:51:40;;;;;;;2.50;2.30;;;;;;;11.74;100.00;98405.75;15276336;19;20010;-48
2023/03/20 15:57:09;;;;;;;4.05;2.78;;;;;;;11.76;100.00;98405.56;15273468;19;20018;-51
2023/03/20 16:02:34;;;;;;;2.97;2.67;;;;;;;11.63;100.00;98415.00;15270227;19;20776;-46
2023/03/20 16:08:13;;;;;;;2.63;2.40;;;;;;;11.62;100.00;98412.50;15271218;19;20704;-46
2023/03/20 16:13:45;;;;;;;2.50;2.30;;;;;;;11.60;100.00;98420.75;15265480;19;20022;-49
2023/03/20 16:19:14;;;;;;;2.53;2.30;;;;;;;11.58;100.00;98420.09;15268220;19;20628;-50
2023/03/20 16:24:44;;;;;;;2.75;2.47;;;;;;;11.59;100.00;98420.91;15267719;19;20020;-51
2023/03/20 16:30:17;;;;;;;3.42;2.53;;;;;;;11.52;100.00;98420.75;15270823;19;20058;-47
2023/03/20 16:35:53;;;;;;;2.40;2.20;;;;;;;11.52;100.00;98428.84;15269589;19;20655;-49
2023/03/20 16:41:27;;;;;;;2.33;2.13;;;;;;;11.45;100.00;98414.34;15271234;19;20019;-51
2023/03/20 16:47:09;;;;;;;1.98;1.83;;;;;;;11.51;100.00;98419.06;15266326;19;20018;-48
2023/03/20 16:52:39;;;;;;;1.90;1.80;;;;;;;11.86;100.00;98417.03;15263307;19;20014;-50
2023/03/20 16:58:07;;;;;;;2.08;1.80;;;;;;;11.67;100.00;98423.63;15269626;19;20628;-46
2023/03/20 17:03:38;;;;;;;1.80;1.70;;;;;;;11.15;100.00;98416.63;15268482;19;20014;-47
2023/03/20 17:09:08;;;;;;;1.90;1.60;;;;;;;11.00;100.00;98428.06;15270412;19;20013;-46
2023/03/20 17:14:34;;;;;;;1.50;1.40;;;;;;;10.92;100.00;98430.72;15263446;19;20028;-48
2023/03/20 17:20:01;;;;;;;1.80;1.70;;;;;;;10.85;100.00;98427.00;15282467;19;20021;-50
2023/03/20 17:25:26;;;;;;;2.58;1.70;;;;;;;10.77;100.00;98425.94;15272955;19;20031;-48
2023/03/20 17:30:50;;;;;;;3.10;2.20;;;;;;;10.68;100.00;98424.25;15277780;19;20028;-51
2023/03/20 17:36:25;;;;;;;1.95;1.85;;;;;;;10.58;100.00;98424.38;15275283;19;20018;-45
2023/03/20 17:41:50;;;;;;;1.80;1.70;;;;;;;10.50;100.00;98429.72;15279156;19;20489;-47
2023/03/20 17:47:17;;;;;;;2.10;1.90;;;;;;;10.42;100.00;98441.28;15277674;19;20018;-48
2023/03/20 17:52:44;;;;;;;2.33;2.13;;;;;;;10.33;100.00;98444.91;15275383;19;20078;-51
2023/03/20 17:58:15;;;;;;;3.78;1.90;;;;;;;10.27;100.00;98456.31;15275173;19;20045;-51
2023/03/20 18:03:39;;;;;;;1.97;1.77;;;;;;;10.11;100.00;98452.50;15279973;19;20030;-48
2023/03/20 18:09:07;;;;;;;2.30;1.95;;;;;;;10.09;100.00;98445.59;15277341;19;20031;-46
2023/03/20 18:14:32;;;;;;;3.85;1.95;;;;;;;10.01;100.00;98446.38;15273335;19;20018;-46
2023/03/20 18:19:57;;;;;;;2.25;1.98;;;;;;;9.93;100.00;98455.25;15278261;19;20018;-48
2023/03/20 18:25:24;;;;;;;2.47;2.28;;;;;;;9.90;100.00;98452.03;15275431;19;20026;-50
2023/03/20 18:30:50;;;;;;;4.45;2.33;;;;;;;9.88;100.00;98454.84;15273651;19;20404;-50
2023/03/20 18:36:20;;;;;;;4.45;2.33;;;;;;;9.85;100.00;98456.00;15273836;19;20011;-47
2023/03/20 18:41:48;;;;;;;2.58;2.30;;;;;;;9.87;100.00;98456.72;15279097;19;20014;-48
2023/03/20 18:47:12;;;;;;;2.50;2.30;;;;;;;9.87;100.00;98459.41;15276999;19;20015;-46
2023/03/20 18:52:38;;;;;;;2.30;2.10;;;;;;;9.89;100.00;98453.03;15272159;19;20025;-45
2023/03/20 18:58:07;;;;;;;2.60;2.40;;;;;;;9.92;100.00;98452.72;15280256;19;20014;-47
2023/03/20 19:03:38;;;;;;;2.40;2.20;;;;;;;9.91;100.00;98456.41;15271219;19;20018;-47
2023/03/20 19:09:03;;;;;;;2.90;2.60;;;;;;;9.89;100.00;98464.63;15273899;19;20110;-46
2023/03/20 19:14:31;;;;;;;4.32;2.63;;;;;;;9.87;100.00;98477.41;15270263;19;20025;-45
2023/03/20 19:19:55;;;;;;;5.32;2.65;;;;;;;9.83;100.00;98470.63;15272720;19;20021;-49
2023/03/20 19:25:20;;;;;;;3.80;2.70;;;;;;;9.78;100.00;98471.09;15276106;19;20018;-46
2023/03/20 19:30:48;;;;;;;3.20;2.90;;;;;;;9.79;100.00;98470.09;15274998;19;20016;-47
2023/03/20 19:36:27;;;;;;;4.57;2.90;;;;;;;9.76;100.00;98472.28;15264768;19;20033;-45
2023/03/20 19:41:51;;;;;;;3.58;3.28;;;;;;;9.73;100.00;98467.19;15271025;19;20014;-47
2023/03/20 19:47:39;;;;;;;3.40;3.10;;;;;;;9.58;100.00;98467.72;15270198;19;20017;-48
2023/03/20 19:53:05;;;;;;;4.40;3.33;;;;;;;9.54;100.00;98477.09;15263542;19;20030;-46
2023/03/20 19:58:30;;;;;;;3.60;3.22;;;;;;;9.55;100.00;98468.88;15273544;19;20015;-46
2023/03/20 20:03:58;;;;;;;4.38;2.80;;;;;;;9.70;100.00;98457.59;15270254;19;20053;-44
2023/03/20 20:09:23;;;;;;;3.33;3.00;;;;;;;9.71;100.00;98437.72;15267962;19;20024;-44
2023/03/20 20:14:47;;;;;;;2.70;2.10;;;;;;;9.79;100.00;98435.13;15268723;19;20014;-43
2023/03/20 20:20:17;;;;;;;2.55;2.30;;;;;;;9.79;100.00;98429.75;15270357;19;20025;-43
2023/03/20 20:25:42;;;;;;;4.23;2.40;;;;;;;9.79;100.00;98431.56;15265591;19;20023;-44
2023/03/20 20:31:07;;;;;;;2.83;2.20;;;;;;;9.77;100.00;98428.19;15263939;19;20022;-44
2023/03/20 20:36:34;;;;;;;3.97;2.22;;;;;;;9.67;100.00;98425.63;15263364;19;20030;-43
2023/03/20 20:42:20;;;;;;;1.90;1.60;;;;;;;9.63;100.00;98424.22;15243488;19;20038;-43
2023/03/20 20:47:47;;;;;;;2.90;1.67;;;;;;;9.55;100.00;98436.59;15271547;19;20028;-43
2023/03/20 20:53:15;;;;;;;3.92;1.70;;;;;;;9.41;100.00;98437.97;15281631;19;20023;-43
2023/03/20 20:58:39;;;;;;;2.20;1.80;;;;;;;9.47;100.00;98441.06;15287593;19;20018;-44
2023/03/20 21:04:04;;;;;;;2.05;1.60;;;;;;;9.35;100.00;98445.84;15284888;19;20017;-43
2023/03/20 21:09:32;;;;;;;2.42;1.67;;;;;;;9.27;100.00;98451.09;15285799;19;20015;-45
2023/03/20 21:14:57;;;;;;;3.30;2.00;;;;;;;9.19;100.00;98439.28;15280059;19;20014;-44
2023/03/20 21:20:22;;;;;;;2.85;2.25;;;;;;;9.15;100.00;98445.13;15286213;19;20010;-46
2023/03/20 21:25:50;;;;;;;3.85;1.85;;;;;;;8.99;100.00;98451.16;15283554;19;20014;-44
2023/03/20 21:31:14;;;;;;;2.58;1.73;;;;;;;8.98;100.00;98457.53;15284994;19;20022;-44
2023/03/20 21:36:45;;;;;;;1.83;1.60;;;;;;;8.92;100.00;98457.13;15277963;19;20023;-44
2023/03/20 21:42:12;;;;;;;2.08;1.27;;;;;;;8.90;100.00;98450.22;15280070;19;20014;-45
2023/03/20 21:47:37;;;;;;;2.70;1.40;;;;;;;8.82;100.00;98452.81;15287120;19;20073;-44
2023/03/20 21:53:21;;;;;;;2.13;1.20;;;;;;;8.78;100.00;98453.09;15284543;19;20475;-45
2023/03/20 21:59:09;;;;;;;1.20;0.90;;;;;;;8.81;100.00;98457.31;15285598;19;20042;-45
2023/03/20 22:04:54;;;;;;;1.65;0.90;;;;;;;8.78;100.00;98452.25;15283067;19;20022;-44
2023/03/20 22:10:40;;;;;;;0.88;0.77;;;;;;;8.68;100.00;98460.38;15282096;19;20022;-45
2023/03/20 22:16:27;;;;;;;1.73;0.95;;;;;;;8.67;100.00;98464.03;15272194;19;20017;-45
2023/03/20 22:22:12;;;;;;;1.48;0.80;;;;;;;8.61;100.00;98467.31;15253444;19;20029;-44
2023/03/20 22:27:57;;;;;;;1.95;0.93;;;;;;;8.56;100.00;98470.44;15279197;19;20021;-43
2023/03/20 22:33:38;;;;;;;1.02;0.82;;;;;;;8.48;100.00;98468.47;15270734;19;20015;-43
2023/03/20 22:39:32;;;;;;;1.50;0.90;;;;;;;8.42;100.00;98470.88;15280163;19;20017;-44
2023/03/20 22:45:17;;;;;;;1.55;0.75;;;;;;;8.35;100.00;98472.47;15276704;19;20017;-44
2023/03/20 22:50:51;;;;;;;1.70;0.83;;;;;;;8.36;100.00;98474.16;15275513;19;20018;-44
2023/03/20 22:56:16;;;;;;;0.95;0.80;;;;;;;8.37;100.00;98465.94;15274015;19;20009;-44
2023/03/20 23:01:40;;;;;;;1.15;0.80;;;;;;;8.33;100.00;98468.06;15279458;19;20021;-43
2023/03/20 23:07:08;;;;;;;1.45;0.90;;;;;;;8.29;100.00;98461.28;15272824;19;20022;-43
2023/03/20 23:12:32;;;;;;;2.13;0.90;;;;;;;8.33;100.00;98457.34;15277097;19;20010;-43
2023/03/20 23:18:00;;;;;;;1.73;0.82;;;;;;;8.25;100.00;98467.97;15276355;19;20558;-43
2023/03/20 23:23:27;;;;;;;1.38;0.90;;;;;;;8.20;100.00;98470.22;15272631;19;20022;-43
2023/03/20 23:28:53;;;;;;;1.98;1.10;;;;;;;8.11;100.00;98469.28;15276710;19;20483;-42
2023/03/20 23:34:17;;;;;;;1.67;1.20;;;;;;;8.12;100.00;98467.44;15272551;19;20018;-43
2023/03/20 23:39:46;;;;;;;2.42;1.25;;;;;;;8.09;100.00;98476.63;15274662;19;20014;-43
2023/03/20 23:45:10;;;;;;;1.45;1.20;;;;;;;8.05;100.00;98477.06;15270398;19;20014;-44
2023/03/20 23:50:39;;;;;;;1.65;1.13;;;;;;;8.01;100.00;98479.16;15272403;19;20021;-43
2023/03/20 23:56:14;;;;;;;2.75;1.30;;;;;;;8.08;100.00;98472.25;15270932;19;20014;-42
